Time;durP1;ratioP1;P1;durP2;ratioP2;P2;SDS_P1;SDS_P2;PMS_P1;PMS_P2;Temp;Humidity;BMP_temperature;BMP_pressure;BME280_temperature;BME280_humidity;BME280_pressure;Samples;Min_cycle;Max_cycle;Signal;HPM_P1;HPM_P2
2023/04/14 00:02:23;;;;;;;4.83;2.30;;;;;;;;;;5091175;28;20198;-76
2023/04/14 00:04:53;;;;;;;6.20;2.20;;;;;;;;;;5091126;28;20305;-76
2023/04/14 00:07:22;;;;;;;4.87;2.07;;;;;;;;;;5090987;28;20198;-76
2023/04/14 00:09:49;;;;;;;3.73;2.00;;;;;;;;;;5093486;28;20725;-76
2023/04/14 00:12:16;;;;;;;6.67;1.90;;;;;;;;;;5095382;28;20710;-77
2023/04/14 00:14:43;;;;;;;6.80;2.53;;;;;;;;;;5114581;28;20211;-76
2023/04/14 00:17:11;;;;;;;9.17;2.10;;;;;;;;;;5115437;28;20203;-76
2023/04/14 00:19:38;;;;;;;5.43;2.30;;;;;;;;;;5115102;28;20288;-76
2023/04/14 00:22:05;;;;;;;5.53;2.17;;;;;;;;;;5116062;28;20199;-77
2023/04/14 00:24:39;;;;;;;5.37;2.23;;;;;;;;;;5115486;28;20203;-76
2023/04/14 00:27:06;;;;;;;8.07;2.40;;;;;;;;;;5115413;28;20224;-76
2023/04/14 00:29:33;;;;;;;4.63;2.10;;;;;;;;;;5115042;28;20193;-76
2023/04/14 00:32:00;;;;;;;4.50;1.80;;;;;;;;;;5115016;28;20335;-76
2023/04/14 00:34:28;;;;;;;5.73;2.10;;;;;;;;;;5115444;28;20728;-76
2023/04/14 00:36:55;;;;;;;4.73;1.90;;;;;;;;;;5115012;28;20739;-76
2023/04/14 00:39:22;;;;;;;6.13;2.13;;;;;;;;;;5115098;28;20201;-76
2023/04/14 00:41:51;;;;;;;7.00;2.00;;;;;;;;;;5114366;28;20234;-75
2023/04/14 00:44:18;;;;;;;8.53;1.87;;;;;;;;;;5114650;28;20291;-76
2023/04/14 00:46:45;;;;;;;8.50;2.23;;;;;;;;;;5115066;28;20209;-77
2023/04/14 00:49:13;;;;;;;8.33;2.00;;;;;;;;;;5114613;28;20727;-76
2023/04/14 00:51:40;;;;;;;7.47;2.30;;;;;;;;;;5114578;28;20232;-76
2023/04/14 00:54:08;;;;;;;5.00;1.93;;;;;;;;;;5114927;28;20197;-77
2023/04/14 00:56:35;;;;;;;9.43;2.43;;;;;;;;;;5114977;28;20193;-76
2023/04/14 00:59:04;;;;;;;6.73;2.30;;;;;;;;;;5114246;28;20283;-76
2023/04/14 01:01:32;;;;;;;8.80;2.20;;;;;;;;;;5114660;28;20208;-77
2023/04/14 01:03:59;;;;;;;6.40;1.87;;;;;;;;;;5114461;28;20668;-76
2023/04/14 01:06:27;;;;;;;6.93;2.00;;;;;;;;;;5114661;28;20233;-77
2023/04/14 01:08:54;;;;;;;8.17;2.20;;;;;;;;;;5114596;28;20196;-77
2023/04/14 01:11:26;;;;;;;6.90;2.30;;;;;;;;;;5114438;28;20319;-76
2023/04/14 01:13:55;;;;;;;7.10;2.20;;;;;;;;;;5113770;28;20672;-76
2023/04/14 01:16:29;;;;;;;10.03;2.23;;;;;;;;;;5114767;28;20284;-75
2023/04/14 01:18:59;;;;;;;11.37;2.77;;;;;;;;;;5113973;28;20201;-76
2023/04/14 01:21:30;;;;;;;7.53;2.40;;;;;;;;;;5113450;28;20290;-76
2023/04/14 01:24:05;;;;;;;11.90;2.30;;;;;;;;;;5114080;28;20250;-76
2023/04/14 01:26:34;;;;;;;9.30;2.40;;;;;;;;;;5114683;28;20204;-75
2023/04/14 01:29:27;;;;;;;6.10;2.23;;;;;;;;;;5113730;28;20209;-76
2023/04/14 01:32:01;;;;;;;11.43;2.40;;;;;;;;;;5114069;28;20228;-77
2023/04/14 01:34:31;;;;;;;6.93;2.07;;;;;;;;;;5114211;28;20204;-77
2023/04/14 01:37:01;;;;;;;11.53;2.30;;;;;;;;;;5113892;28;20679;-76
2023/04/14 01:39:31;;;;;;;10.33;2.33;;;;;;;;;;5114013;28;20725;-76
2023/04/14 01:42:00;;;;;;;8.67;2.20;;;;;;;;;;5113322;28;20240;-77
2023/04/14 01:44:29;;;;;;;10.37;2.40;;;;;;;;;;5113818;28;20735;-76
2023/04/14 01:47:01;;;;;;;9.83;2.27;;;;;;;;;;5114040;28;20216;-76
2023/04/14 01:49:29;;;;;;;7.30;2.27;;;;;;;;;;5113273;28;20693;-76
2023/04/14 01:51:56;;;;;;;13.63;2.00;;;;;;;;;;5113637;28;20739;-76
2023/04/14 01:54:24;;;;;;;8.50;2.10;;;;;;;;;;5113628;28;20192;-76
2023/04/14 01:56:52;;;;;;;10.63;2.10;;;;;;;;;;5113293;28;20737;-76
2023/04/14 01:59:21;;;;;;;8.03;2.23;;;;;;;;;;5113533;28;20203;-76
2023/04/14 02:01:50;;;;;;;10.73;2.20;;;;;;;;;;5113469;28;20581;-77
2023/04/14 02:04:20;;;;;;;9.37;2.20;;;;;;;;;;5113286;28;20649;-76
2023/04/14 02:06:48;;;;;;;16.37;2.60;;;;;;;;;;5113622;28;20228;-76
2023/04/14 02:09:15;;;;;;;11.17;2.10;;;;;;;;;;5113518;28;20203;-77
2023/04/14 02:11:43;;;;;;;9.93;1.90;;;;;;;;;;5112994;28;20321;-76
2023/04/14 02:14:11;;;;;;;9.63;1.97;;;;;;;;;;5108121;28;20220;-77
2023/04/14 02:16:39;;;;;;;10.20;2.00;;;;;;;;;;5100551;28;20309;-76
2023/04/14 02:19:06;;;;;;;9.30;2.10;;;;;;;;;;5092960;28;20299;-76
2023/04/14 02:21:36;;;;;;;10.13;2.00;;;;;;;;;;5092747;28;20284;-76
2023/04/14 02:24:03;;;;;;;10.90;2.40;;;;;;;;;;5092673;28;20292;-76
2023/04/14 02:26:32;;;;;;;14.70;2.40;;;;;;;;;;5092217;28;20197;-76
2023/04/14 02:29:03;;;;;;;8.67;2.00;;;;;;;;;;5092207;28;20225;-76
2023/04/14 02:31:31;;;;;;;6.77;1.90;;;;;;;;;;5091565;28;20324;-76
2023/04/14 02:34:01;;;;;;;9.70;2.10;;;;;;;;;;5091130;28;20221;-76
2023/04/14 02:36:31;;;;;;;9.87;1.80;;;;;;;;;;5092338;28;20280;-76
2023/04/14 02:39:01;;;;;;;8.60;1.90;;;;;;;;;;5092149;28;20571;-76
2023/04/14 02:41:29;;;;;;;9.07;2.10;;;;;;;;;;5092062;28;20448;-76
2023/04/14 02:44:01;;;;;;;9.27;2.27;;;;;;;;;;5092544;28;20198;-76
2023/04/14 02:46:30;;;;;;;10.53;2.20;;;;;;;;;;5092238;28;20292;-76
2023/04/14 02:48:58;;;;;;;7.60;1.80;;;;;;;;;;5092335;28;20234;-76
2023/04/14 02:51:26;;;;;;;8.40;2.37;;;;;;;;;;5092399;28;20344;-76
2023/04/14 02:53:54;;;;;;;9.97;1.93;;;;;;;;;;5091299;28;20280;-77
2023/04/14 02:56:23;;;;;;;9.77;1.90;;;;;;;;;;5092280;28;20278;-76
2023/04/14 02:58:51;;;;;;;11.97;2.37;;;;;;;;;;5092074;28;20630;-76
2023/04/14 03:01:19;;;;;;;11.10;2.50;;;;;;;;;;5091829;28;20197;-76
2023/04/14 03:03:47;;;;;;;10.30;2.13;;;;;;;;;;5092033;28;20208;-76
2023/04/14 03:06:15;;;;;;;7.67;2.20;;;;;;;;;;5092012;28;20609;-78
2023/04/14 03:08:43;;;;;;;11.10;2.33;;;;;;;;;;5091602;28;20198;-76
2023/04/14 03:11:12;;;;;;;8.90;2.40;;;;;;;;;;5092185;28;20321;-76
2023/04/14 03:13:41;;;;;;;11.07;2.47;;;;;;;;;;5102102;28;20207;-76
2023/04/14 03:16:09;;;;;;;11.93;2.47;;;;;;;;;;5111814;28;21148;-76
2023/04/14 03:18:37;;;;;;;11.70;2.10;;;;;;;;;;5112074;28;20198;-76
2023/04/14 03:21:05;;;;;;;11.00;2.40;;;;;;;;;;5112590;28;20204;-76
2023/04/14 03:23:32;;;;;;;10.80;2.33;;;;;;;;;;5111853;28;20287;-76
2023/04/14 03:26:02;;;;;;;10.13;2.67;;;;;;;;;;5111857;28;20676;-77
2023/04/14 03:28:31;;;;;;;11.43;2.57;;;;;;;;;;5111764;28;20215;-76
2023/04/14 03:31:02;;;;;;;8.10;2.40;;;;;;;;;;5111692;28;20199;-76
2023/04/14 03:33:32;;;;;;;10.53;2.60;;;;;;;;;;5111579;28;20208;-77
2023/04/14 03:36:00;;;;;;;11.27;2.53;;;;;;;;;;5111738;28;20200;-76
2023/04/14 03:38:27;;;;;;;11.93;2.60;;;;;;;;;;5111751;28;20203;-77
2023/04/14 03:40:58;;;;;;;9.80;2.50;;;;;;;;;;5111651;28;20240;-76
2023/04/14 03:43:26;;;;;;;12.43;3.23;;;;;;;;;;5111558;28;20197;-76
2023/04/14 03:45:53;;;;;;;14.30;3.00;;;;;;;;;;5111539;28;20288;-76
2023/04/14 03:48:25;;;;;;;9.87;2.80;;;;;;;;;;5111458;28;20197;-77
2023/04/14 03:50:53;;;;;;;10.57;2.70;;;;;;;;;;5111759;28;20197;-76
2023/04/14 03:53:21;;;;;;;9.63;2.33;;;;;;;;;;5111241;28;20743;-75
2023/04/14 03:55:50;;;;;;;9.00;2.80;;;;;;;;;;5111799;28;20201;-75
2023/04/14 03:58:17;;;;;;;11.97;2.60;;;;;;;;;;5112314;28;20229;-77
2023/04/14 04:00:45;;;;;;;9.40;2.47;;;;;;;;;;5111791;28;20539;-76
2023/04/14 04:03:13;;;;;;;11.67;2.97;;;;;;;;;;5111650;28;20276;-77
2023/04/14 04:05:43;;;;;;;11.33;2.37;;;;;;;;;;5111776;28;20231;-76
2023/04/14 04:08:10;;;;;;;10.30;2.20;;;;;;;;;;5110958;28;20197;-76
2023/04/14 04:10:38;;;;;;;12.23;2.57;;;;;;;;;;5110327;28;20292;-76
2023/04/14 04:13:07;;;;;;;10.50;2.27;;;;;;;;;;5111499;28;20231;-75
2023/04/14 04:15:35;;;;;;;9.03;2.53;;;;;;;;;;5111548;28;20201;-76
2023/04/14 04:18:04;;;;;;;8.70;2.27;;;;;;;;;;5111420;28;20631;-75
2023/04/14 04:20:32;;;;;;;9.00;1.90;;;;;;;;;;5111362;28;20221;-76
2023/04/14 04:23:02;;;;;;;11.47;1.97;;;;;;;;;;5111274;28;20650;-76
2023/04/14 04:25:31;;;;;;;8.87;2.40;;;;;;;;;;5111159;28;20236;-76
2023/04/14 04:27:59;;;;;;;5.67;1.93;;;;;;;;;;5111336;28;20193;-76
2023/04/14 04:30:28;;;;;;;10.03;2.27;;;;;;;;;;5111743;28;20287;-76
2023/04/14 04:32:55;;;;;;;8.20;2.23;;;;;;;;;;5110978;28;20235;-76
2023/04/14 04:35:24;;;;;;;9.90;2.37;;;;;;;;;;5110901;28;20201;-75
2023/04/14 04:37:52;;;;;;;10.10;1.90;;;;;;;;;;5111235;28;20291;-76
2023/04/14 04:40:20;;;;;;;9.30;1.80;;;;;;;;;;5110888;28;20225;-75
2023/04/14 04:42:48;;;;;;;9.70;2.17;;;;;;;;;;5111639;28;20207;-75
2023/04/14 04:45:18;;;;;;;10.70;1.93;;;;;;;;;;5111009;28;20288;-76
2023/04/14 04:47:45;;;;;;;9.10;2.33;;;;;;;;;;5111220;28;20189;-75
2023/04/14 04:50:12;;;;;;;11.00;2.10;;;;;;;;;;5110980;28;20289;-76
2023/04/14 04:52:40;;;;;;;7.27;1.77;;;;;;;;;;5111228;28;20228;-76
2023/04/14 04:55:07;;;;;;;9.63;1.80;;;;;;;;;;5110635;28;20618;-76
2023/04/14 04:57:36;;;;;;;11.93;2.27;;;;;;;;;;5113959;28;20752;-75
2023/04/14 05:00:04;;;;;;;9.33;2.20;;;;;;;;;;5114513;28;20197;-76
2023/04/14 05:02:31;;;;;;;13.13;2.57;;;;;;;;;;5114284;28;20211;-75
2023/04/14 05:04:58;;;;;;;11.07;2.40;;;;;;;;;;5114352;28;20203;-77
2023/04/14 05:07:25;;;;;;;10.77;2.13;;;;;;;;;;5114635;28;20292;-79
2023/04/14 05:09:52;;;;;;;12.03;2.17;;;;;;;;;;5114352;28;20299;-77
2023/04/14 05:12:20;;;;;;;11.07;2.13;;;;;;;;;;5114323;28;20220;-77
2023/04/14 05:14:48;;;;;;;15.60;2.30;;;;;;;;;;5112352;28;20200;-77
2023/04/14 05:17:15;;;;;;;13.03;2.53;;;;;;;;;;5114431;28;20254;-76
2023/04/14 05:19:42;;;;;;;10.00;2.57;;;;;;;;;;5114051;28;20284;-77
2023/04/14 05:22:11;;;;;;;11.87;2.20;;;;;;;;;;5114211;28;20763;-78
2023/04/14 05:24:39;;;;;;;11.90;2.37;;;;;;;;;;5114509;27;20208;-76
2023/04/14 05:27:06;;;;;;;8.83;2.33;;;;;;;;;;5114695;28;20232;-77
2023/04/14 05:29:33;;;;;;;11.67;2.17;;;;;;;;;;5114187;28;20608;-77
2023/04/14 05:32:01;;;;;;;8.80;2.00;;;;;;;;;;5106731;28;20252;-78
2023/04/14 05:34:29;;;;;;;9.70;1.90;;;;;;;;;;5095322;28;20209;-77
2023/04/14 05:36:56;;;;;;;10.03;2.17;;;;;;;;;;5094021;28;20213;-77
2023/04/14 05:39:23;;;;;;;11.13;2.17;;;;;;;;;;5095589;28;20276;-78
2023/04/14 05:41:50;;;;;;;8.97;2.33;;;;;;;;;;5102073;28;20617;-78
2023/04/14 05:44:17;;;;;;;8.77;2.00;;;;;;;;;;5104770;28;20204;-78
2023/04/14 05:46:45;;;;;;;6.30;1.63;;;;;;;;;;5109946;28;20283;-76
2023/04/14 05:49:13;;;;;;;7.20;1.83;;;;;;;;;;5111933;28;20200;-77
2023/04/14 05:51:41;;;;;;;6.47;1.90;;;;;;;;;;5112743;28;20844;-77
2023/04/14 05:54:08;;;;;;;3.97;1.70;;;;;;;;;;5113557;28;20661;-77
2023/04/14 05:56:35;;;;;;;5.30;1.70;;;;;;;;;;5113700;28;20207;-78
2023/04/14 05:59:02;;;;;;;7.27;1.57;;;;;;;;;;5113947;27;20232;-76
2023/04/14 06:01:29;;;;;;;8.10;1.97;;;;;;;;;;5113508;28;20194;-76
2023/04/14 06:03:57;;;;;;;9.23;1.80;;;;;;;;;;5113003;28;20197;-76
2023/04/14 06:06:26;;;;;;;6.00;1.73;;;;;;;;;;5111346;28;20203;-76
2023/04/14 06:08:54;;;;;;;5.37;1.90;;;;;;;;;;5087540;28;20207;-76
2023/04/14 06:11:21;;;;;;;4.57;1.60;;;;;;;;;;5102155;28;20211;-76
2023/04/14 06:13:49;;;;;;;4.27;1.60;;;;;;;;;;5107559;28;20248;-76
2023/04/14 06:16:16;;;;;;;4.10;1.67;;;;;;;;;;5107664;28;20247;-76
2023/04/14 06:18:43;;;;;;;7.93;1.70;;;;;;;;;;5106501;28;20285;-76
2023/04/14 06:21:10;;;;;;;5.67;1.10;;;;;;;;;;5084251;28;20234;-76
2023/04/14 06:23:39;;;;;;;5.50;1.50;;;;;;;;;;5105072;28;20233;-77
2023/04/14 06:26:06;;;;;;;5.30;1.27;;;;;;;;;;5108704;28;20217;-77
2023/04/14 06:28:33;;;;;;;4.83;1.50;;;;;;;;;;5107256;28;20232;-76
2023/04/14 06:31:00;;;;;;;3.67;0.93;;;;;;;;;;5107880;28;20228;-75
2023/04/14 06:33:27;;;;;;;5.27;1.57;;;;;;;;;;5106976;28;20296;-76
2023/04/14 06:35:55;;;;;;;2.67;1.10;;;;;;;;;;5106108;28;20205;-77
2023/04/14 06:38:23;;;;;;;2.80;1.10;;;;;;;;;;5100177;28;20213;-76
2023/04/14 06:40:52;;;;;;;2.67;0.70;;;;;;;;;;5111898;28;20286;-76
2023/04/14 06:43:20;;;;;;;2.47;0.70;;;;;;;;;;5108640;28;20229;-76
2023/04/14 06:45:47;;;;;;;4.10;1.10;;;;;;;;;;5112537;28;21038;-76
2023/04/14 06:48:14;;;;;;;3.77;0.90;;;;;;;;;;5112563;28;20657;-76
2023/04/14 06:50:41;;;;;;;3.93;1.00;;;;;;;;;;5112884;28;20197;-77
2023/04/14 06:53:08;;;;;;;2.20;0.60;;;;;;;;;;5111642;28;20292;-77
2023/04/14 06:55:36;;;;;;;2.73;0.83;;;;;;;;;;5112713;28;20311;-76
2023/04/14 06:58:04;;;;;;;2.00;1.13;;;;;;;;;;5112236;28;20236;-76
2023/04/14 07:00:31;;;;;;;3.33;0.97;;;;;;;;;;5111875;28;20277;-76
2023/04/14 07:02:58;;;;;;;4.23;1.10;;;;;;;;;;5112191;28;20316;-76
2023/04/14 07:05:26;;;;;;;2.90;0.80;;;;;;;;;;5112363;28;20285;-76
2023/04/14 07:07:53;;;;;;;2.37;0.73;;;;;;;;;;5112657;28;20197;-76
2023/04/14 07:10:20;;;;;;;3.47;1.03;;;;;;;;;;5112248;28;20581;-76
2023/04/14 07:12:47;;;;;;;2.70;0.90;;;;;;;;;;5111601;28;20296;-76
2023/04/14 07:15:16;;;;;;;2.03;1.37;;;;;;;;;;5111553;28;20284;-77
2023/04/14 07:17:43;;;;;;;3.37;0.90;;;;;;;;;;5111531;28;20225;-76
2023/04/14 07:20:11;;;;;;;2.47;0.90;;;;;;;;;;5102480;28;20649;-76
2023/04/14 07:22:38;;;;;;;1.97;1.30;;;;;;;;;;5106714;28;20664;-76
2023/04/14 07:25:06;;;;;;;3.27;1.00;;;;;;;;;;5111045;28;20653;-77
2023/04/14 07:27:33;;;;;;;3.23;1.10;;;;;;;;;;5111571;28;20194;-77
2023/04/14 07:30:00;;;;;;;2.10;1.00;;;;;;;;;;5110853;28;20221;-76
2023/04/14 07:32:29;;;;;;;2.30;1.07;;;;;;;;;;5111001;28;20200;-77
2023/04/14 07:34:57;;;;;;;2.53;1.00;;;;;;;;;;5110761;28;20767;-77
2023/04/14 07:37:25;;;;;;;3.07;1.10;;;;;;;;;;5110744;28;20288;-76
2023/04/14 07:39:52;;;;;;;2.73;1.00;;;;;;;;;;5110524;28;20681;-76
2023/04/14 07:42:19;;;;;;;1.47;0.60;;;;;;;;;;5106224;28;20198;-76
2023/04/14 07:44:47;;;;;;;3.80;0.70;;;;;;;;;;5099763;28;20289;-76
2023/04/14 07:47:14;;;;;;;2.37;0.90;;;;;;;;;;5109278;28;20636;-76
2023/04/14 07:49:42;;;;;;;1.73;1.13;;;;;;;;;;5111575;28;20894;-76
2023/04/14 07:52:11;;;;;;;2.67;1.30;;;;;;;;;;5111843;28;20200;-75
2023/04/14 07:54:38;;;;;;;3.27;0.80;;;;;;;;;;5110964;28;20644;-76
2023/04/14 07:57:07;;;;;;;2.07;1.20;;;;;;;;;;5112017;28;20636;-76
2023/04/14 07:59:35;;;;;;;2.30;1.50;;;;;;;;;;5110743;28;20194;-76
2023/04/14 08:02:02;;;;;;;1.00;0.80;;;;;;;;;;5110961;28;20200;-77
2023/04/14 08:04:29;;;;;;;2.50;1.20;;;;;;;;;;5111332;28;20247;-77
2023/04/14 08:06:58;;;;;;;2.60;1.00;;;;;;;;;;5111613;28;20200;-75
2023/04/14 08:09:25;;;;;;;1.47;1.10;;;;;;;;;;5110367;28;20964;-76
2023/04/14 08:11:52;;;;;;;3.57;1.00;;;;;;;;;;5111100;28;20684;-76
2023/04/14 08:14:19;;;;;;;2.87;1.00;;;;;;;;;;5111139;28;20209;-77
2023/04/14 08:16:47;;;;;;;1.90;0.90;;;;;;;;;;5110498;28;20248;-76
2023/04/14 08:19:14;;;;;;;2.67;1.27;;;;;;;;;;5111327;28;20210;-77
2023/04/14 08:21:41;;;;;;;1.57;0.70;;;;;;;;;;5109870;28;20292;-76
2023/04/14 08:24:10;;;;;;;2.50;1.20;;;;;;;;;;5109118;28;20324;-76
2023/04/14 08:26:37;;;;;;;3.57;1.50;;;;;;;;;;5091611;28;20206;-76
2023/04/14 08:29:04;;;;;;;1.70;1.10;;;;;;;;;;5090129;28;20651;-76
2023/04/14 08:31:32;;;;;;;1.40;0.80;;;;;;;;;;5091840;28;20201;-76
2023/04/14 08:33:59;;;;;;;3.30;1.47;;;;;;;;;;5108507;28;20194;-77
2023/04/14 08:36:27;;;;;;;3.47;1.20;;;;;;;;;;5114620;28;20201;-77
2023/04/14 08:38:54;;;;;;;3.70;1.30;;;;;;;;;;5114748;27;20198;-77
2023/04/14 08:41:23;;;;;;;2.20;1.10;;;;;;;;;;5114488;28;20316;-76
2023/04/14 08:43:50;;;;;;;1.83;1.10;;;;;;;;;;5114205;28;20316;-77
2023/04/14 08:46:18;;;;;;;3.43;1.57;;;;;;;;;;5115401;28;20379;-77
2023/04/14 08:48:47;;;;;;;2.47;1.43;;;;;;;;;;5114668;28;20276;-77
2023/04/14 08:51:15;;;;;;;2.93;1.30;;;;;;;;;;5115130;28;20197;-77
2023/04/14 08:53:44;;;;;;;2.07;1.30;;;;;;;;;;5114865;28;20218;-78
2023/04/14 08:56:13;;;;;;;3.90;1.33;;;;;;;;;;5114337;28;20228;-76
2023/04/14 08:58:41;;;;;;;3.87;1.40;;;;;;;;;;5114669;28;20273;-76
2023/04/14 09:01:10;;;;;;;2.30;1.40;;;;;;;;;;5108041;28;20232;-78
2023/04/14 09:03:38;;;;;;;5.03;1.50;;;;;;;;;;5113619;28;20232;-78
2023/04/14 09:06:06;;;;;;;2.53;1.47;;;;;;;;;;5113822;28;20225;-77
2023/04/14 09:08:33;;;;;;;2.67;1.80;;;;;;;;;;5114418;28;20194;-77
2023/04/14 09:11:01;;;;;;;3.47;1.90;;;;;;;;;;5114248;28;20589;-77
2023/04/14 09:13:29;;;;;;;4.53;1.90;;;;;;;;;;5113969;28;20296;-76
2023/04/14 09:15:58;;;;;;;4.30;1.90;;;;;;;;;;5114237;28;20232;-78
2023/04/14 09:18:27;;;;;;;4.63;1.83;;;;;;;;;;5114519;27;20205;-78
2023/04/14 09:20:54;;;;;;;5.97;2.20;;;;;;;;;;5114080;28;20193;-77
2023/04/14 09:23:22;;;;;;;6.23;2.70;;;;;;;;;;5113952;28;20229;-77
2023/04/14 09:25:49;;;;;;;7.37;2.77;;;;;;;;;;5112893;28;20222;-77
2023/04/14 09:28:16;;;;;;;6.97;2.50;;;;;;;;;;5111407;28;20202;-78
2023/04/14 09:30:43;;;;;;;5.57;2.30;;;;;;;;;;5101623;28;20571;-78
2023/04/14 09:33:20;;;;;;;5.60;2.67;;;;;;;;;;5113780;28;20225;-77
2023/04/14 09:35:49;;;;;;;9.57;3.00;;;;;;;;;;5114290;27;20193;-77
2023/04/14 09:38:16;;;;;;;9.77;3.60;;;;;;;;;;5113897;28;20190;-77
2023/04/14 09:40:44;;;;;;;9.03;3.50;;;;;;;;;;5112802;28;20320;-77
2023/04/14 09:43:24;;;;;;;11.97;3.40;;;;;;;;;;5107153;28;20222;-77
2023/04/14 09:45:51;;;;;;;9.33;2.93;;;;;;;;;;5099060;28;20213;-77
2023/04/14 09:48:20;;;;;;;8.20;2.93;;;;;;;;;;5094292;28;20219;-77
2023/04/14 09:51:00;;;;;;;9.47;3.13;;;;;;;;;;5093029;28;20636;-77
2023/04/14 09:53:30;;;;;;;10.20;2.77;;;;;;;;;;5093322;28;20210;-77
2023/04/14 09:56:01;;;;;;;11.00;2.90;;;;;;;;;;5093052;28;20281;-77
2023/04/14 09:58:29;;;;;;;10.00;2.87;;;;;;;;;;5092682;28;20198;-77
2023/04/14 10:00:58;;;;;;;9.40;2.50;;;;;;;;;;5103545;28;20285;-78
2023/04/14 10:03:43;;;;;;;11.13;2.77;;;;;;;;;;5101630;28;20313;-78
2023/04/14 10:06:15;;;;;;;12.10;3.13;;;;;;;;;;5111596;28;20741;-76
2023/04/14 10:08:45;;;;;;;10.83;3.27;;;;;;;;;;5112465;28;20202;-77
2023/04/14 10:11:16;;;;;;;11.93;2.60;;;;;;;;;;5112859;28;20190;-77
2023/04/14 10:13:44;;;;;;;13.07;2.73;;;;;;;;;;5113252;28;20586;-78
2023/04/14 10:16:11;;;;;;;12.30;2.40;;;;;;;;;;5112736;28;20305;-78
2023/04/14 10:18:38;;;;;;;12.47;2.90;;;;;;;;;;5111320;28;20716;-78
2023/04/14 10:21:06;;;;;;;10.80;2.53;;;;;;;;;;5102489;28;20284;-77
2023/04/14 10:23:36;;;;;;;12.17;2.30;;;;;;;;;;5112598;28;20233;-77
2023/04/14 10:26:04;;;;;;;9.70;2.43;;;;;;;;;;5112879;28;20194;-77
2023/04/14 10:28:31;;;;;;;13.43;2.63;;;;;;;;;;5113165;28;20200;-77
2023/04/14 10:31:00;;;;;;;16.13;2.93;;;;;;;;;;5112878;28;20285;-75
2023/04/14 10:33:28;;;;;;;10.13;2.40;;;;;;;;;;5102770;28;20202;-78
2023/04/14 10:35:59;;;;;;;13.30;2.70;;;;;;;;;;5111239;28;20205;-77
2023/04/14 10:38:42;;;;;;;12.43;2.50;;;;;;;;;;5108559;28;20611;-77
2023/04/14 10:41:11;;;;;;;11.30;2.43;;;;;;;;;;5108882;28;20240;-77
2023/04/14 10:43:38;;;;;;;10.80;2.93;;;;;;;;;;5111232;28;20221;-78
2023/04/14 10:46:06;;;;;;;14.30;2.90;;;;;;;;;;5110948;28;20704;-77
2023/04/14 10:48:34;;;;;;;11.20;2.93;;;;;;;;;;5111348;28;20209;-78
2023/04/14 10:51:02;;;;;;;12.20;3.03;;;;;;;;;;5111667;28;20333;-77
2023/04/14 10:53:45;;;;;;;8.93;2.53;;;;;;;;;;5110195;28;20198;-76
2023/04/14 10:56:13;;;;;;;12.10;2.77;;;;;;;;;;5109586;28;20194;-78
2023/04/14 10:58:41;;;;;;;10.33;2.70;;;;;;;;;;5110922;28;20277;-77
2023/04/14 11:01:25;;;;;;;8.97;2.50;;;;;;;;;;5111542;28;20276;-77
2023/04/14 11:03:53;;;;;;;10.83;2.83;;;;;;;;;;5109522;28;20245;-77
2023/04/14 11:06:39;;;;;;;12.17;2.80;;;;;;;;;;5106521;28;20318;-77
2023/04/14 11:09:22;;;;;;;9.63;2.97;;;;;;;;;;5108245;28;20726;-78
2023/04/14 11:11:51;;;;;;;12.37;2.70;;;;;;;;;;5108871;28;20244;-76
2023/04/14 11:14:19;;;;;;;10.93;3.03;;;;;;;;;;5111365;28;20198;-77
2023/04/14 11:16:46;;;;;;;14.00;2.67;;;;;;;;;;5108485;28;20185;-77
2023/04/14 11:19:14;;;;;;;10.30;2.60;;;;;;;;;;5103114;28;20285;-78
2023/04/14 11:21:49;;;;;;;11.03;3.03;;;;;;;;;;5091091;28;20191;-78
2023/04/14 11:24:16;;;;;;;11.90;3.17;;;;;;;;;;5091807;28;20218;-78
2023/04/14 11:26:44;;;;;;;8.57;2.70;;;;;;;;;;5091369;28;20281;-78
2023/04/14 11:29:12;;;;;;;8.83;2.50;;;;;;;;;;5091138;28;20191;-79
2023/04/14 11:31:40;;;;;;;11.00;2.23;;;;;;;;;;5091390;28;20284;-78
2023/04/14 11:34:07;;;;;;;14.63;3.47;;;;;;;;;;5091552;28;20301;-78
2023/04/14 11:36:35;;;;;;;9.90;2.63;;;;;;;;;;5090881;28;20289;-77
2023/04/14 11:39:03;;;;;;;11.37;2.60;;;;;;;;;;5091519;28;20240;-77
2023/04/14 11:41:31;;;;;;;12.83;3.20;;;;;;;;;;5090926;28;20241;-78
2023/04/14 11:43:59;;;;;;;14.13;3.63;;;;;;;;;;5094320;28;20225;-77
2023/04/14 11:46:27;;;;;;;16.00;3.30;;;;;;;;;;5100433;28;20193;-76
2023/04/14 11:48:55;;;;;;;14.57;3.30;;;;;;;;;;5111331;28;20632;-78
2023/04/14 11:51:29;;;;;;;17.43;3.30;;;;;;;;;;5110508;28;20197;-78
2023/04/14 11:53:57;;;;;;;15.27;3.20;;;;;;;;;;5091189;28;20578;-77
2023/04/14 11:56:26;;;;;;;14.67;3.03;;;;;;;;;;5101138;28;20706;-77
2023/04/14 11:58:59;;;;;;;13.00;2.93;;;;;;;;;;5111545;28;20198;-77
2023/04/14 12:01:28;;;;;;;13.73;2.50;;;;;;;;;;5111085;28;20284;-77
2023/04/14 12:03:56;;;;;;;11.90;2.70;;;;;;;;;;5110702;28;20305;-77
2023/04/14 12:06:26;;;;;;;13.43;3.40;;;;;;;;;;5114142;28;20240;-77
2023/04/14 12:08:53;;;;;;;15.43;3.50;;;;;;;;;;5115813;27;20285;-76
2023/04/14 12:11:21;;;;;;;16.40;2.73;;;;;;;;;;5115874;28;20250;-78
2023/04/14 12:13:49;;;;;;;12.10;3.03;;;;;;;;;;5115137;28;20213;-78
2023/04/14 12:16:17;;;;;;;18.37;3.13;;;;;;;;;;5115457;28;20555;-77
2023/04/14 12:18:46;;;;;;;18.10;2.97;;;;;;;;;;5115189;28;20281;-77
2023/04/14 12:21:17;;;;;;;13.93;2.97;;;;;;;;;;5114870;28;20276;-77
2023/04/14 12:23:47;;;;;;;8.73;2.57;;;;;;;;;;5114820;27;20194;-78
2023/04/14 12:26:14;;;;;;;9.40;2.20;;;;;;;;;;5115504;28;20250;-76
2023/04/14 12:28:42;;;;;;;10.63;2.23;;;;;;;;;;5114998;28;20194;-77
2023/04/14 12:31:09;;;;;;;10.87;2.03;;;;;;;;;;5113008;28;20284;-77
2023/04/14 12:33:36;;;;;;;7.83;1.83;;;;;;;;;;5097103;28;20305;-77
2023/04/14 12:36:06;;;;;;;6.53;1.70;;;;;;;;;;5094852;28;20199;-78
2023/04/14 12:38:33;;;;;;;8.10;2.10;;;;;;;;;;5094401;28;20289;-78
2023/04/14 12:41:01;;;;;;;7.43;2.10;;;;;;;;;;5093807;28;20269;-77
2023/04/14 12:43:28;;;;;;;5.67;1.50;;;;;;;;;;5094978;28;20283;-77
2023/04/14 12:45:57;;;;;;;7.97;1.50;;;;;;;;;;5094392;28;20253;-77
2023/04/14 12:48:38;;;;;;;5.43;1.40;;;;;;;;;;5093905;28;20648;-77
2023/04/14 12:51:10;;;;;;;7.03;1.43;;;;;;;;;;5094339;28;20204;-77
2023/04/14 12:53:37;;;;;;;8.57;1.83;;;;;;;;;;5094334;28;20675;-77
2023/04/14 12:56:05;;;;;;;8.03;1.83;;;;;;;;;;5108198;28;20300;-77
2023/04/14 12:58:33;;;;;;;6.87;2.00;;;;;;;;;;5114376;28;20194;-77
2023/04/14 13:01:00;;;;;;;8.77;1.90;;;;;;;;;;5114141;28;20194;-76
2023/04/14 13:03:38;;;;;;;10.73;2.27;;;;;;;;;;5104645;28;20218;-77
2023/04/14 13:06:05;;;;;;;5.77;2.00;;;;;;;;;;5094048;28;20745;-78
2023/04/14 13:08:34;;;;;;;7.40;1.90;;;;;;;;;;5107115;28;20289;-77
2023/04/14 13:11:02;;;;;;;11.67;2.73;;;;;;;;;;5114432;28;20578;-78
2023/04/14 13:13:29;;;;;;;6.63;1.93;;;;;;;;;;5113077;28;20225;-77
2023/04/14 13:15:57;;;;;;;7.97;2.00;;;;;;;;;;5113810;28;20674;-77
2023/04/14 13:18:24;;;;;;;8.83;1.63;;;;;;;;;;5111468;28;20198;-78
2023/04/14 13:20:55;;;;;;;5.03;1.37;;;;;;;;;;5112211;28;20194;-78
2023/04/14 13:23:23;;;;;;;9.53;1.80;;;;;;;;;;5112663;28;20225;-80
2023/04/14 13:25:51;;;;;;;9.27;1.73;;;;;;;;;;5112092;28;20322;-78
2023/04/14 13:28:18;;;;;;;6.23;1.40;;;;;;;;;;5108019;28;20201;-76
2023/04/14 13:30:46;;;;;;;7.97;1.60;;;;;;;;;;5113946;28;20343;-77
2023/04/14 13:33:13;;;;;;;7.30;1.77;;;;;;;;;;5116826;27;20201;-77
2023/04/14 13:35:40;;;;;;;3.80;1.00;;;;;;;;;;5106554;28;20285;-77
2023/04/14 13:38:09;;;;;;;5.33;0.77;;;;;;;;;;5106319;28;20204;-76
2023/04/14 13:40:36;;;;;;;3.63;0.90;;;;;;;;;;5113687;28;20230;-78
2023/04/14 13:43:07;;;;;;;3.97;1.00;;;;;;;;;;5113862;28;20194;-77
2023/04/14 13:45:34;;;;;;;3.70;0.73;;;;;;;;;;5113620;28;20217;-77
2023/04/14 13:48:01;;;;;;;4.20;1.07;;;;;;;;;;5113017;28;20194;-76
2023/04/14 13:50:29;;;;;;;4.27;0.80;;;;;;;;;;5114826;27;20197;-78
2023/04/14 13:52:56;;;;;;;3.63;0.90;;;;;;;;;;5108163;28;20292;-77
2023/04/14 13:55:23;;;;;;;2.73;0.80;;;;;;;;;;5113867;28;20281;-77
2023/04/14 13:57:50;;;;;;;2.40;0.53;;;;;;;;;;5113646;28;20285;-77
2023/04/14 14:00:19;;;;;;;2.50;0.90;;;;;;;;;;5113354;28;20285;-78
2023/04/14 14:02:46;;;;;;;5.20;1.33;;;;;;;;;;5113235;28;20281;-76
2023/04/14 14:05:15;;;;;;;2.73;0.70;;;;;;;;;;5107677;28;20332;-77
2023/04/14 14:07:42;;;;;;;3.97;1.10;;;;;;;;;;5122863;27;20688;-77
2023/04/14 14:10:09;;;;;;;2.87;1.00;;;;;;;;;;5133553;27;20300;-78
2023/04/14 14:12:37;;;;;;;3.40;1.00;;;;;;;;;;5131749;27;20200;-77
2023/04/14 14:15:04;;;;;;;2.73;0.93;;;;;;;;;;5112234;28;20217;-77
2023/04/14 14:17:33;;;;;;;4.80;1.07;;;;;;;;;;5112315;28;20732;-76
2023/04/14 14:20:00;;;;;;;4.20;1.17;;;;;;;;;;5113098;28;20270;-77
2023/04/14 14:22:27;;;;;;;8.27;2.10;;;;;;;;;;5109330;27;20190;-76
2023/04/14 14:24:55;;;;;;;2.60;0.93;;;;;;;;;;5114063;27;20245;-76
2023/04/14 14:27:22;;;;;;;5.93;1.73;;;;;;;;;;5112565;28;20185;-76
2023/04/14 14:29:49;;;;;;;3.80;1.40;;;;;;;;;;5111838;28;20285;-77
2023/04/14 14:32:16;;;;;;;4.50;1.17;;;;;;;;;;5111960;28;20276;-77
2023/04/14 14:34:46;;;;;;;4.80;0.87;;;;;;;;;;5110125;28;20314;-76
2023/04/14 14:37:13;;;;;;;4.77;1.30;;;;;;;;;;5106611;28;20289;-77
2023/04/14 14:39:41;;;;;;;3.63;1.50;;;;;;;;;;5100838;28;20694;-78
2023/04/14 14:42:08;;;;;;;6.30;2.30;;;;;;;;;;5091882;28;20275;-77
2023/04/14 14:44:35;;;;;;;5.70;2.10;;;;;;;;;;5091980;28;20230;-78
2023/04/14 14:47:02;;;;;;;4.90;1.73;;;;;;;;;;5092264;28;20209;-77